sensor_id;sensor_type;location;lat;lon;timestamp;temperature;humidity
54642;DHT22;40536;53.194;5.728;2022-10-17T00:01:07;11.70;99.90
54642;DHT22;40536;53.194;5.728;2022-10-17T00:03:34;11.70;99.90
54642;DHT22;40536;53.194;5.728;2022-10-17T00:06:05;11.70;99.90
54642;DHT22;40536;53.194;5.728;2022-10-17T00:08:31;11.70;99.90
54642;DHT22;40536;53.194;5.728;2022-10-17T00:10:59;11.70;99.90
54642;DHT22;40536;53.194;5.728;2022-10-17T00:13:25;11.70;99.90
54642;DHT22;40536;53.194;5.728;2022-10-17T00:15:51;11.70;99.90
54642;DHT22;40536;53.194;5.728;2022-10-17T00:18:17;11.80;99.90
54642;DHT22;40536;53.194;5.728;2022-10-17T00:20:43;11.80;99.90
54642;DHT22;40536;53.194;5.728;2022-10-17T00:23:09;11.90;99.90
54642;DHT22;40536;53.194;5.728;2022-10-17T00:25:34;12.00;99.90
54642;DHT22;40536;53.194;5.728;2022-10-17T00:28:01;12.00;99.90
54642;DHT22;40536;53.194;5.728;2022-10-17T00:30:27;12.00;99.90
54642;DHT22;40536;53.194;5.728;2022-10-17T00:32:52;12.10;99.90
54642;DHT22;40536;53.194;5.728;2022-10-17T00:35:18;12.10;99.90
54642;DHT22;40536;53.194;5.728;2022-10-17T00:37:43;12.20;99.90
54642;DHT22;40536;53.194;5.728;2022-10-17T00:40:09;12.20;99.90
54642;DHT22;40536;53.194;5.728;2022-10-17T00:42:35;12.20;99.90
54642;DHT22;40536;53.194;5.728;2022-10-17T00:47:30;12.30;99.90
54642;DHT22;40536;53.194;5.728;2022-10-17T00:49:56;12.30;99.90
54642;DHT22;40536;53.194;5.728;2022-10-17T00:52:26;12.40;99.90
54642;DHT22;40536;53.194;5.728;2022-10-17T00:55:03;12.40;99.90
54642;DHT22;40536;53.194;5.728;2022-10-17T00:57:31;12.40;99.90
54642;DHT22;40536;53.194;5.728;2022-10-17T00:59:58;12.50;99.90
54642;DHT22;40536;53.194;5.728;2022-10-17T01:02:28;12.60;99.90
54642;DHT22;40536;53.194;5.728;2022-10-17T01:04:55;12.70;99.90
54642;DHT22;40536;53.194;5.728;2022-10-17T01:07:21;12.70;99.90
54642;DHT22;40536;53.194;5.728;2022-10-17T01:09:47;12.70;99.90
54642;DHT22;40536;53.194;5.728;2022-10-17T01:12:26;12.80;99.90
54642;DHT22;40536;53.194;5.728;2022-10-17T01:18:03;12.90;99.90
54642;DHT22;40536;53.194;5.728;2022-10-17T01:26:22;12.90;99.90
54642;DHT22;40536;53.194;5.728;2022-10-17T01:29:11;12.90;99.90
54642;DHT22;40536;53.194;5.728;2022-10-17T01:32:01;13.00;99.90
54642;DHT22;40536;53.194;5.728;2022-10-17T01:34:44;13.00;99.90
54642;DHT22;40536;53.194;5.728;2022-10-17T01:37:24;12.90;99.90
54642;DHT22;40536;53.194;5.728;2022-10-17T01:40:02;12.90;99.90
54642;DHT22;40536;53.194;5.728;2022-10-17T01:45:15;12.90;99.90
54642;DHT22;40536;53.194;5.728;2022-10-17T01:47:43;12.80;99.90
54642;DHT22;40536;53.194;5.728;2022-10-17T01:50:17;12.80;99.90
54642;DHT22;40536;53.194;5.728;2022-10-17T01:52:47;12.80;99.90
54642;DHT22;40536;53.194;5.728;2022-10-17T01:55:22;12.70;99.90
54642;DHT22;40536;53.194;5.728;2022-10-17T01:57:56;12.70;99.90
54642;DHT22;40536;53.194;5.728;2022-10-17T02:00:25;12.70;99.90
54642;DHT22;40536;53.194;5.728;2022-10-17T02:02:55;12.60;99.90
54642;DHT22;40536;53.194;5.728;2022-10-17T02:05:27;12.70;99.90
54642;DHT22;40536;53.194;5.728;2022-10-17T02:07:53;12.60;99.90
54642;DHT22;40536;53.194;5.728;2022-10-17T02:10:46;12.80;99.90
54642;DHT22;40536;53.194;5.728;2022-10-17T02:16:33;12.60;99.90
54642;DHT22;40536;53.194;5.728;2022-10-17T02:22:13;12.50;99.90
54642;DHT22;40536;53.194;5.728;2022-10-17T02:32:41;12.50;99.90
54642;DHT22;40536;53.194;5.728;2022-10-17T02:35:11;12.50;99.90
54642;DHT22;40536;53.194;5.728;2022-10-17T02:37:39;12.40;99.90
54642;DHT22;40536;53.194;5.728;2022-10-17T02:40:08;12.40;99.90
54642;DHT22;40536;53.194;5.728;2022-10-17T02:42:35;12.40;99.90
54642;DHT22;40536;53.194;5.728;2022-10-17T02:45:02;12.50;99.90
54642;DHT22;40536;53.194;5.728;2022-10-17T02:47:36;12.50;99.90
54642;DHT22;40536;53.194;5.728;2022-10-17T02:50:05;12.50;99.90
54642;DHT22;40536;53.194;5.728;2022-10-17T02:52:39;12.50;99.90
54642;DHT22;40536;53.194;5.728;2022-10-17T02:55:19;12.60;99.90
54642;DHT22;40536;53.194;5.728;2022-10-17T02:57:52;12.60;99.90
54642;DHT22;40536;53.194;5.728;2022-10-17T03:00:21;12.70;99.90
54642;DHT22;40536;53.194;5.728;2022-10-17T03:02:50;12.60;99.90
54642;DHT22;40536;53.194;5.728;2022-10-17T03:05:25;12.70;99.90
54642;DHT22;40536;53.194;5.728;2022-10-17T03:07:51;12.70;99.90
54642;DHT22;40536;53.194;5.728;2022-10-17T03:10:17;12.70;99.90
54642;DHT22;40536;53.194;5.728;2022-10-17T03:12:43;12.70;99.90
54642;DHT22;40536;53.194;5.728;2022-10-17T03:15:09;12.70;99.90
54642;DHT22;40536;53.194;5.728;2022-10-17T03:17:36;12.80;99.90
54642;DHT22;40536;53.194;5.728;2022-10-17T03:20:02;12.80;99.90
54642;DHT22;40536;53.194;5.728;2022-10-17T03:22:28;12.80;99.90
54642;DHT22;40536;53.194;5.728;2022-10-17T03:24:54;12.80;99.90
54642;DHT22;40536;53.194;5.728;2022-10-17T03:27:20;12.90;99.90
54642;DHT22;40536;53.194;5.728;2022-10-17T03:29:45;12.80;99.90
54642;DHT22;40536;53.194;5.728;2022-10-17T03:32:11;12.90;99.90
54642;DHT22;40536;53.194;5.728;2022-10-17T03:34:37;12.80;99.90
54642;DHT22;40536;53.194;5.728;2022-10-17T03:37:03;12.80;99.90
54642;DHT22;40536;53.194;5.728;2022-10-17T03:39:28;12.70;99.90
54642;DHT22;40536;53.194;5.728;2022-10-17T03:41:54;12.70;99.90
54642;DHT22;40536;53.194;5.728;2022-10-17T03:44:19;12.70;99.90
54642;DHT22;40536;53.194;5.728;2022-10-17T03:46:45;12.70;99.90
54642;DHT22;40536;53.194;5.728;2022-10-17T03:49:11;12.60;99.90
54642;DHT22;40536;53.194;5.728;2022-10-17T03:51:37;12.60;99.90
54642;DHT22;40536;53.194;5.728;2022-10-17T03:54:02;12.60;99.90
54642;DHT22;40536;53.194;5.728;2022-10-17T03:56:28;12.60;99.90
54642;DHT22;40536;53.194;5.728;2022-10-17T03:58:55;12.50;99.90
54642;DHT22;40536;53.194;5.728;2022-10-17T04:01:21;12.50;99.90
54642;DHT22;40536;53.194;5.728;2022-10-17T04:03:52;12.60;99.90
54642;DHT22;40536;53.194;5.728;2022-10-17T04:06:19;12.60;99.90
54642;DHT22;40536;53.194;5.728;2022-10-17T04:08:46;12.60;99.90
54642;DHT22;40536;53.194;5.728;2022-10-17T04:11:15;12.60;99.90
54642;DHT22;40536;53.194;5.728;2022-10-17T04:13:41;12.60;99.90
54642;DHT22;40536;53.194;5.728;2022-10-17T04:16:14;12.60;99.90
54642;DHT22;40536;53.194;5.728;2022-10-17T04:18:40;12.60;99.90
54642;DHT22;40536;53.194;5.728;2022-10-17T04:21:07;12.70;99.90
54642;DHT22;40536;53.194;5.728;2022-10-17T04:23:34;12.70;99.90
54642;DHT22;40536;53.194;5.728;2022-10-17T04:26:00;12.70;99.90
54642;DHT22;40536;53.194;5.728;2022-10-17T04:28:28;12.80;99.90
54642;DHT22;40536;53.194;5.728;2022-10-17T04:31:03;12.80;99.90
54642;DHT22;40536;53.194;5.728;2022-10-17T04:33:32;12.90;99.90
54642;DHT22;40536;53.194;5.728;2022-10-17T04:36:03;12.90;99.90
54642;DHT22;40536;53.194;5.728;2022-10-17T04:38:29;13.00;99.90
54642;DHT22;40536;53.194;5.728;2022-10-17T04:41:04;13.00;99.90
54642;DHT22;40536;53.194;5.728;2022-10-17T04:43:31;13.10;99.90
54642;DHT22;40536;53.194;5.728;2022-10-17T04:45:58;13.10;99.90
54642;DHT22;40536;53.194;5.728;2022-10-17T04:48:24;13.10;99.90
54642;DHT22;40536;53.194;5.728;2022-10-17T04:50:58;13.20;99.90
54642;DHT22;40536;53.194;5.728;2022-10-17T04:53:24;13.20;99.90
54642;DHT22;40536;53.194;5.728;2022-10-17T04:55:51;13.20;99.90
54642;DHT22;40536;53.194;5.728;2022-10-17T04:58:18;13.20;99.90
54642;DHT22;40536;53.194;5.728;2022-10-17T05:00:43;13.20;99.90
54642;DHT22;40536;53.194;5.728;2022-10-17T05:03:09;13.30;99.90
54642;DHT22;40536;53.194;5.728;2022-10-17T05:05:39;13.30;99.90
54642;DHT22;40536;53.194;5.728;2022-10-17T05:08:05;13.30;99.90
54642;DHT22;40536;53.194;5.728;2022-10-17T05:10:42;13.30;99.90
54642;DHT22;40536;53.194;5.728;2022-10-17T05:13:09;13.40;99.90
54642;DHT22;40536;53.194;5.728;2022-10-17T05:15:35;13.40;99.90
54642;DHT22;40536;53.194;5.728;2022-10-17T05:18:01;13.60;99.90
54642;DHT22;40536;53.194;5.728;2022-10-17T05:20:26;13.50;99.90
54642;DHT22;40536;53.194;5.728;2022-10-17T05:22:52;13.50;99.90
54642;DHT22;40536;53.194;5.728;2022-10-17T05:25:18;13.50;99.90
54642;DHT22;40536;53.194;5.728;2022-10-17T05:27:44;13.60;99.90
54642;DHT22;40536;53.194;5.728;2022-10-17T05:30:10;13.70;99.90
54642;DHT22;40536;53.194;5.728;2022-10-17T05:32:37;13.80;99.90
54642;DHT22;40536;53.194;5.728;2022-10-17T05:35:03;13.80;99.90
54642;DHT22;40536;53.194;5.728;2022-10-17T05:37:30;13.80;99.90
54642;DHT22;40536;53.194;5.728;2022-10-17T05:39:56;14.00;99.90
54642;DHT22;40536;53.194;5.728;2022-10-17T05:42:22;13.90;99.90
54642;DHT22;40536;53.194;5.728;2022-10-17T05:44:48;14.00;99.90
54642;DHT22;40536;53.194;5.728;2022-10-17T05:47:14;13.90;99.90
54642;DHT22;40536;53.194;5.728;2022-10-17T05:49:39;14.00;99.90
54642;DHT22;40536;53.194;5.728;2022-10-17T05:52:05;14.00;99.90
54642;DHT22;40536;53.194;5.728;2022-10-17T05:54:31;14.00;99.90
54642;DHT22;40536;53.194;5.728;2022-10-17T05:56:56;14.10;99.90
54642;DHT22;40536;53.194;5.728;2022-10-17T05:59:24;14.10;99.90
54642;DHT22;40536;53.194;5.728;2022-10-17T06:01:50;14.10;99.90
54642;DHT22;40536;53.194;5.728;2022-10-17T06:04:16;14.10;99.90
54642;DHT22;40536;53.194;5.728;2022-10-17T06:06:42;14.10;99.90
54642;DHT22;40536;53.194;5.728;2022-10-17T06:09:08;14.10;99.90
54642;DHT22;40536;53.194;5.728;2022-10-17T06:11:34;14.10;99.90
54642;DHT22;40536;53.194;5.728;2022-10-17T06:14:00;14.10;99.90
54642;DHT22;40536;53.194;5.728;2022-10-17T06:16:26;14.10;99.90
54642;DHT22;40536;53.194;5.728;2022-10-17T06:18:51;14.10;99.90
54642;DHT22;40536;53.194;5.728;2022-10-17T06:21:20;14.10;99.90
54642;DHT22;40536;53.194;5.728;2022-10-17T06:23:46;14.20;99.90
54642;DHT22;40536;53.194;5.728;2022-10-17T06:26:12;14.20;99.90
54642;DHT22;40536;53.194;5.728;2022-10-17T06:28:38;14.20;99.90
54642;DHT22;40536;53.194;5.728;2022-10-17T06:31:09;14.20;99.90
54642;DHT22;40536;53.194;5.728;2022-10-17T06:33:35;14.30;99.90
54642;DHT22;40536;53.194;5.728;2022-10-17T06:36:00;14.20;99.90
54642;DHT22;40536;53.194;5.728;2022-10-17T06:38:26;14.30;99.90
54642;DHT22;40536;53.194;5.728;2022-10-17T06:40:52;14.30;99.90
54642;DHT22;40536;53.194;5.728;2022-10-17T06:43:19;14.40;99.90
54642;DHT22;40536;53.194;5.728;2022-10-17T06:45:45;14.40;99.90
54642;DHT22;40536;53.194;5.728;2022-10-17T06:48:12;14.40;99.90
54642;DHT22;40536;53.194;5.728;2022-10-17T06:50:37;14.50;99.90
54642;DHT22;40536;53.194;5.728;2022-10-17T06:53:03;14.50;99.90
54642;DHT22;40536;53.194;5.728;2022-10-17T06:55:30;14.60;99.90
54642;DHT22;40536;53.194;5.728;2022-10-17T06:57:56;14.60;99.90
54642;DHT22;40536;53.194;5.728;2022-10-17T07:00:22;14.70;99.90
54642;DHT22;40536;53.194;5.728;2022-10-17T07:02:48;14.70;99.90
54642;DHT22;40536;53.194;5.728;2022-10-17T07:05:13;14.90;99.90
54642;DHT22;40536;53.194;5.728;2022-10-17T07:07:39;14.90;99.90
54642;DHT22;40536;53.194;5.728;2022-10-17T07:10:05;15.00;99.90
54642;DHT22;40536;53.194;5.728;2022-10-17T07:12:33;15.10;99.90
54642;DHT22;40536;53.194;5.728;2022-10-17T07:14:59;15.20;99.90
54642;DHT22;40536;53.194;5.728;2022-10-17T07:17:25;15.30;99.90
54642;DHT22;40536;53.194;5.728;2022-10-17T07:19:51;15.30;99.90
54642;DHT22;40536;53.194;5.728;2022-10-17T07:22:16;15.40;99.90
54642;DHT22;40536;53.194;5.728;2022-10-17T07:24:42;15.40;99.90
54642;DHT22;40536;53.194;5.728;2022-10-17T07:27:08;15.50;99.90
54642;DHT22;40536;53.194;5.728;2022-10-17T07:29:34;15.50;99.90
54642;DHT22;40536;53.194;5.728;2022-10-17T07:31:59;15.60;99.90
54642;DHT22;40536;53.194;5.728;2022-10-17T07:34:25;15.60;99.90
54642;DHT22;40536;53.194;5.728;2022-10-17T07:36:55;15.60;99.90
54642;DHT22;40536;53.194;5.728;2022-10-17T07:39:21;15.80;99.90
54642;DHT22;40536;53.194;5.728;2022-10-17T07:41:48;15.80;99.90
54642;DHT22;40536;53.194;5.728;2022-10-17T07:44:15;15.90;99.90
54642;DHT22;40536;53.194;5.728;2022-10-17T07:46:41;16.00;99.90
54642;DHT22;40536;53.194;5.728;2022-10-17T07:49:06;16.10;99.90
54642;DHT22;40536;53.194;5.728;2022-10-17T07:51:32;16.20;99.90
54642;DHT22;40536;53.194;5.728;2022-10-17T07:53:58;16.30;99.90
54642;DHT22;40536;53.194;5.728;2022-10-17T07:56:23;16.40;99.90
54642;DHT22;40536;53.194;5.728;2022-10-17T07:58:50;16.50;99.90
54642;DHT22;40536;53.194;5.728;2022-10-17T08:01:16;16.50;99.90
54642;DHT22;40536;53.194;5.728;2022-10-17T08:03:46;16.60;99.90
54642;DHT22;40536;53.194;5.728;2022-10-17T08:06:13;16.60;99.90
54642;DHT22;40536;53.194;5.728;2022-10-17T08:08:39;16.60;99.90
54642;DHT22;40536;53.194;5.728;2022-10-17T08:11:08;16.60;99.90
54642;DHT22;40536;53.194;5.728;2022-10-17T08:13:34;16.60;99.90
54642;DHT22;40536;53.194;5.728;2022-10-17T08:16:06;16.60;99.90
54642;DHT22;40536;53.194;5.728;2022-10-17T08:18:33;16.50;99.90
54642;DHT22;40536;53.194;5.728;2022-10-17T08:21:00;16.50;99.90
54642;DHT22;40536;53.194;5.728;2022-10-17T08:23:27;16.50;99.90
54642;DHT22;40536;53.194;5.728;2022-10-17T08:25:53;16.50;99.90
54642;DHT22;40536;53.194;5.728;2022-10-17T08:28:19;16.50;99.90
54642;DHT22;40536;53.194;5.728;2022-10-17T08:30:44;16.50;99.90
54642;DHT22;40536;53.194;5.728;2022-10-17T08:33:10;16.60;99.90
54642;DHT22;40536;53.194;5.728;2022-10-17T08:35:35;16.60;99.90
54642;DHT22;40536;53.194;5.728;2022-10-17T08:38:01;16.60;99.90
54642;DHT22;40536;53.194;5.728;2022-10-17T08:40:29;16.70;99.90
54642;DHT22;40536;53.194;5.728;2022-10-17T08:46:00;16.60;99.90
54642;DHT22;40536;53.194;5.728;2022-10-17T08:48:30;16.50;99.90
54642;DHT22;40536;53.194;5.728;2022-10-17T08:51:06;16.50;99.90
54642;DHT22;40536;53.194;5.728;2022-10-17T08:53:57;16.50;99.90
54642;DHT22;40536;53.194;5.728;2022-10-17T08:56:33;16.50;99.90
54642;DHT22;40536;53.194;5.728;2022-10-17T08:59:00;16.40;99.90
54642;DHT22;40536;53.194;5.728;2022-10-17T09:06:32;16.30;99.90
54642;DHT22;40536;53.194;5.728;2022-10-17T09:11:58;16.20;99.90
54642;DHT22;40536;53.194;5.728;2022-10-17T09:20:02;16.20;99.90
54642;DHT22;40536;53.194;5.728;2022-10-17T09:22:33;16.10;99.90
54642;DHT22;40536;53.194;5.728;2022-10-17T09:25:05;16.10;99.90
54642;DHT22;40536;53.194;5.728;2022-10-17T09:27:46;16.10;99.90
54642;DHT22;40536;53.194;5.728;2022-10-17T09:30:26;16.00;99.90
54642;DHT22;40536;53.194;5.728;2022-10-17T09:32:53;16.00;99.90
54642;DHT22;40536;53.194;5.728;2022-10-17T09:35:20;16.00;99.90
54642;DHT22;40536;53.194;5.728;2022-10-17T09:37:47;16.00;99.90
54642;DHT22;40536;53.194;5.728;2022-10-17T09:40:30;16.00;99.90
54642;DHT22;40536;53.194;5.728;2022-10-17T09:42:57;16.00;99.90
54642;DHT22;40536;53.194;5.728;2022-10-17T09:45:24;16.00;99.90
54642;DHT22;40536;53.194;5.728;2022-10-17T09:48:04;15.90;99.90
54642;DHT22;40536;53.194;5.728;2022-10-17T09:50:35;16.00;99.90
54642;DHT22;40536;53.194;5.728;2022-10-17T09:53:17;16.20;99.90
54642;DHT22;40536;53.194;5.728;2022-10-17T09:55:47;15.90;99.90
54642;DHT22;40536;53.194;5.728;2022-10-17T09:58:14;16.00;99.90
54642;DHT22;40536;53.194;5.728;2022-10-17T10:00:43;16.00;99.90
54642;DHT22;40536;53.194;5.728;2022-10-17T10:05:41;16.00;99.90
54642;DHT22;40536;53.194;5.728;2022-10-17T10:08:16;16.00;99.90
54642;DHT22;40536;53.194;5.728;2022-10-17T10:10:43;16.20;99.90
54642;DHT22;40536;53.194;5.728;2022-10-17T10:15:43;16.00;99.90
54642;DHT22;40536;53.194;5.728;2022-10-17T10:23:34;16.20;99.90
54642;DHT22;40536;53.194;5.728;2022-10-17T10:28:38;16.20;99.90
54642;DHT22;40536;53.194;5.728;2022-10-17T10:31:07;16.20;99.90
54642;DHT22;40536;53.194;5.728;2022-10-17T10:33:35;16.30;99.90
54642;DHT22;40536;53.194;5.728;2022-10-17T10:36:05;16.30;99.90
54642;DHT22;40536;53.194;5.728;2022-10-17T10:38:33;16.40;99.90
54642;DHT22;40536;53.194;5.728;2022-10-17T10:41:10;16.50;99.90
54642;DHT22;40536;53.194;5.728;2022-10-17T10:48:58;16.60;99.90
54642;DHT22;40536;53.194;5.728;2022-10-17T10:54:19;16.70;99.90
54642;DHT22;40536;53.194;5.728;2022-10-17T10:56:50;16.70;99.90
54642;DHT22;40536;53.194;5.728;2022-10-17T10:59:34;16.70;99.90
54642;DHT22;40536;53.194;5.728;2022-10-17T11:04:56;16.60;99.90
54642;DHT22;40536;53.194;5.728;2022-10-17T11:07:33;16.60;99.90
54642;DHT22;40536;53.194;5.728;2022-10-17T11:13:00;16.60;99.90
54642;DHT22;40536;53.194;5.728;2022-10-17T11:21:26;16.50;99.90
54642;DHT22;40536;53.194;5.728;2022-10-17T11:24:02;16.50;99.90
54642;DHT22;40536;53.194;5.728;2022-10-17T11:26:32;16.60;99.90
54642;DHT22;40536;53.194;5.728;2022-10-17T11:29:03;16.70;99.90
54642;DHT22;40536;53.194;5.728;2022-10-17T11:31:34;16.70;99.90
54642;DHT22;40536;53.194;5.728;2022-10-17T11:34:05;16.70;99.90
54642;DHT22;40536;53.194;5.728;2022-10-17T11:36:39;16.80;99.90
54642;DHT22;40536;53.194;5.728;2022-10-17T11:39:24;16.80;99.90
54642;DHT22;40536;53.194;5.728;2022-10-17T11:41:54;16.90;99.90
54642;DHT22;40536;53.194;5.728;2022-10-17T11:44:40;16.80;99.90
54642;DHT22;40536;53.194;5.728;2022-10-17T11:47:36;16.70;99.90
54642;DHT22;40536;53.194;5.728;2022-10-17T11:52:45;16.70;99.90
54642;DHT22;40536;53.194;5.728;2022-10-17T11:55:22;16.60;99.90
54642;DHT22;40536;53.194;5.728;2022-10-17T12:25:24;16.50;99.90
54642;DHT22;40536;53.194;5.728;2022-10-17T12:28:08;16.50;99.90
54642;DHT22;40536;53.194;5.728;2022-10-17T12:30:34;16.40;99.90
54642;DHT22;40536;53.194;5.728;2022-10-17T12:33:03;16.50;99.90
54642;DHT22;40536;53.194;5.728;2022-10-17T12:35:32;16.50;99.90
54642;DHT22;40536;53.194;5.728;2022-10-17T12:45:50;16.80;99.90
54642;DHT22;40536;53.194;5.728;2022-10-17T12:56:12;17.00;99.90
54642;DHT22;40536;53.194;5.728;2022-10-17T12:58:43;17.10;99.90
54642;DHT22;40536;53.194;5.728;2022-10-17T13:01:17;17.10;99.90
54642;DHT22;40536;53.194;5.728;2022-10-17T13:03:48;17.20;99.90
54642;DHT22;40536;53.194;5.728;2022-10-17T13:06:19;17.10;99.90
54642;DHT22;40536;53.194;5.728;2022-10-17T13:08:49;17.10;99.90
54642;DHT22;40536;53.194;5.728;2022-10-17T13:11:22;17.10;99.90
54642;DHT22;40536;53.194;5.728;2022-10-17T13:13:51;17.10;99.90
54642;DHT22;40536;53.194;5.728;2022-10-17T13:16:27;17.10;99.90
54642;DHT22;40536;53.194;5.728;2022-10-17T13:18:53;17.10;99.90
54642;DHT22;40536;53.194;5.728;2022-10-17T13:21:19;17.10;99.90
54642;DHT22;40536;53.194;5.728;2022-10-17T13:23:45;17.10;99.90
54642;DHT22;40536;53.194;5.728;2022-10-17T13:26:24;17.10;99.90
54642;DHT22;40536;53.194;5.728;2022-10-17T13:29:05;17.10;99.90
54642;DHT22;40536;53.194;5.728;2022-10-17T13:31:33;17.00;99.90
54642;DHT22;40536;53.194;5.728;2022-10-17T13:34:02;17.00;99.90
54642;DHT22;40536;53.194;5.728;2022-10-17T13:36:29;17.00;99.90
54642;DHT22;40536;53.194;5.728;2022-10-17T13:38:58;16.90;99.90
54642;DHT22;40536;53.194;5.728;2022-10-17T13:41:27;16.90;99.90
54642;DHT22;40536;53.194;5.728;2022-10-17T13:43:53;16.90;99.90
54642;DHT22;40536;53.194;5.728;2022-10-17T13:46:32;16.80;99.90
54642;DHT22;40536;53.194;5.728;2022-10-17T13:48:59;16.90;99.90
54642;DHT22;40536;53.194;5.728;2022-10-17T13:51:33;16.90;99.90
54642;DHT22;40536;53.194;5.728;2022-10-17T13:53:59;16.90;99.90
54642;DHT22;40536;53.194;5.728;2022-10-17T13:56:26;17.10;99.90
54642;DHT22;40536;53.194;5.728;2022-10-17T13:58:54;17.00;99.90
54642;DHT22;40536;53.194;5.728;2022-10-17T14:01:23;17.00;99.90
54642;DHT22;40536;53.194;5.728;2022-10-17T14:03:50;17.00;99.90
54642;DHT22;40536;53.194;5.728;2022-10-17T14:06:28;16.80;99.90
54642;DHT22;40536;53.194;5.728;2022-10-17T14:09:07;16.90;99.90
54642;DHT22;40536;53.194;5.728;2022-10-17T14:11:43;16.90;99.90
54642;DHT22;40536;53.194;5.728;2022-10-17T14:14:24;16.90;99.90
54642;DHT22;40536;53.194;5.728;2022-10-17T14:16:51;16.90;99.90
54642;DHT22;40536;53.194;5.728;2022-10-17T14:19:34;16.90;99.90
54642;DHT22;40536;53.194;5.728;2022-10-17T14:22:27;17.00;99.90
54642;DHT22;40536;53.194;5.728;2022-10-17T14:24:53;17.00;99.90
54642;DHT22;40536;53.194;5.728;2022-10-17T14:27:34;16.90;99.90
54642;DHT22;40536;53.194;5.728;2022-10-17T14:32:49;16.90;99.90
54642;DHT22;40536;53.194;5.728;2022-10-17T14:35:16;16.90;99.90
54642;DHT22;40536;53.194;5.728;2022-10-17T14:37:44;16.90;99.90
54642;DHT22;40536;53.194;5.728;2022-10-17T14:40:21;17.00;99.90
54642;DHT22;40536;53.194;5.728;2022-10-17T14:42:51;16.90;99.90
54642;DHT22;40536;53.194;5.728;2022-10-17T14:45:29;16.80;99.90
54642;DHT22;40536;53.194;5.728;2022-10-17T14:47:59;16.90;99.90
54642;DHT22;40536;53.194;5.728;2022-10-17T14:50:28;16.80;99.90
54642;DHT22;40536;53.194;5.728;2022-10-17T14:55:36;16.70;99.90
54642;DHT22;40536;53.194;5.728;2022-10-17T14:58:21;16.70;99.90
54642;DHT22;40536;53.194;5.728;2022-10-17T15:00:48;16.70;99.90
54642;DHT22;40536;53.194;5.728;2022-10-17T15:03:14;16.60;99.90
54642;DHT22;40536;53.194;5.728;2022-10-17T15:05:40;16.60;99.90
54642;DHT22;40536;53.194;5.728;2022-10-17T15:08:15;16.60;99.90
54642;DHT22;40536;53.194;5.728;2022-10-17T15:10:42;16.60;99.90
54642;DHT22;40536;53.194;5.728;2022-10-17T15:13:10;16.60;99.90
54642;DHT22;40536;53.194;5.728;2022-10-17T15:15:37;16.60;99.90
54642;DHT22;40536;53.194;5.728;2022-10-17T15:18:03;16.60;99.90
54642;DHT22;40536;53.194;5.728;2022-10-17T15:20:29;16.50;99.90
54642;DHT22;40536;53.194;5.728;2022-10-17T15:22:57;16.50;99.90
54642;DHT22;40536;53.194;5.728;2022-10-17T15:25:23;16.50;99.90
54642;DHT22;40536;53.194;5.728;2022-10-17T15:27:49;16.60;99.90
54642;DHT22;40536;53.194;5.728;2022-10-17T15:30:20;16.50;99.90
54642;DHT22;40536;53.194;5.728;2022-10-17T15:32:46;16.70;99.90
54642;DHT22;40536;53.194;5.728;2022-10-17T15:35:11;16.40;99.90
54642;DHT22;40536;53.194;5.728;2022-10-17T15:37:37;16.40;99.90
54642;DHT22;40536;53.194;5.728;2022-10-17T15:40:04;16.40;99.90
54642;DHT22;40536;53.194;5.728;2022-10-17T15:42:30;16.30;99.90
54642;DHT22;40536;53.194;5.728;2022-10-17T15:44:56;16.30;99.90
54642;DHT22;40536;53.194;5.728;2022-10-17T15:49:47;16.20;99.90
54642;DHT22;40536;53.194;5.728;2022-10-17T15:52:13;16.20;99.90
54642;DHT22;40536;53.194;5.728;2022-10-17T15:54:39;16.10;99.90
54642;DHT22;40536;53.194;5.728;2022-10-17T15:57:05;16.10;99.90
54642;DHT22;40536;53.194;5.728;2022-10-17T15:59:32;16.00;99.90
54642;DHT22;40536;53.194;5.728;2022-10-17T16:01:59;16.00;99.90
54642;DHT22;40536;53.194;5.728;2022-10-17T16:04:24;16.00;99.90
54642;DHT22;40536;53.194;5.728;2022-10-17T16:06:52;15.90;99.90
54642;DHT22;40536;53.194;5.728;2022-10-17T16:09:17;15.90;99.90
54642;DHT22;40536;53.194;5.728;2022-10-17T16:11:43;15.90;99.90
54642;DHT22;40536;53.194;5.728;2022-10-17T16:14:14;15.80;99.90
54642;DHT22;40536;53.194;5.728;2022-10-17T16:16:40;15.80;99.90
54642;DHT22;40536;53.194;5.728;2022-10-17T16:19:07;15.80;99.90
54642;DHT22;40536;53.194;5.728;2022-10-17T16:21:36;15.80;99.90
54642;DHT22;40536;53.194;5.728;2022-10-17T16:24:03;15.80;99.90
54642;DHT22;40536;53.194;5.728;2022-10-17T16:26:29;15.70;99.90
54642;DHT22;40536;53.194;5.728;2022-10-17T16:28:55;15.60;99.90
54642;DHT22;40536;53.194;5.728;2022-10-17T16:31:23;15.60;99.90
54642;DHT22;40536;53.194;5.728;2022-10-17T16:33:52;15.60;99.90
54642;DHT22;40536;53.194;5.728;2022-10-17T16:36:18;15.50;99.90
54642;DHT22;40536;53.194;5.728;2022-10-17T16:38:45;15.50;99.90
54642;DHT22;40536;53.194;5.728;2022-10-17T16:43:47;15.30;99.90
54642;DHT22;40536;53.194;5.728;2022-10-17T16:46:13;15.30;99.90
54642;DHT22;40536;53.194;5.728;2022-10-17T16:48:39;15.20;99.90
54642;DHT22;40536;53.194;5.728;2022-10-17T16:51:05;15.20;99.90
54642;DHT22;40536;53.194;5.728;2022-10-17T16:53:31;15.20;99.90
54642;DHT22;40536;53.194;5.728;2022-10-17T16:56:03;15.20;99.90
54642;DHT22;40536;53.194;5.728;2022-10-17T16:58:29;15.10;99.90
54642;DHT22;40536;53.194;5.728;2022-10-17T17:01:05;15.10;99.90
54642;DHT22;40536;53.194;5.728;2022-10-17T17:03:36;15.00;99.90
54642;DHT22;40536;53.194;5.728;2022-10-17T17:06:03;15.00;99.90
54642;DHT22;40536;53.194;5.728;2022-10-17T17:08:29;15.00;99.90
54642;DHT22;40536;53.194;5.728;2022-10-17T17:10:55;15.00;99.90
54642;DHT22;40536;53.194;5.728;2022-10-17T17:13:21;14.90;99.90
54642;DHT22;40536;53.194;5.728;2022-10-17T17:15:47;14.90;99.90
54642;DHT22;40536;53.194;5.728;2022-10-17T17:18:19;14.80;99.90
54642;DHT22;40536;53.194;5.728;2022-10-17T17:20:45;14.80;99.90
54642;DHT22;40536;53.194;5.728;2022-10-17T17:23:10;14.80;99.90
54642;DHT22;40536;53.194;5.728;2022-10-17T17:25:36;14.80;99.90
54642;DHT22;40536;53.194;5.728;2022-10-17T17:28:04;14.70;99.90
54642;DHT22;40536;53.194;5.728;2022-10-17T17:30:34;14.70;99.90
54642;DHT22;40536;53.194;5.728;2022-10-17T17:33:00;14.70;99.90
54642;DHT22;40536;53.194;5.728;2022-10-17T17:35:27;14.60;99.90
54642;DHT22;40536;53.194;5.728;2022-10-17T17:37:53;14.60;99.90
54642;DHT22;40536;53.194;5.728;2022-10-17T17:40:18;14.60;99.90
54642;DHT22;40536;53.194;5.728;2022-10-17T17:42:44;14.60;99.90
54642;DHT22;40536;53.194;5.728;2022-10-17T17:45:10;14.60;99.90
54642;DHT22;40536;53.194;5.728;2022-10-17T17:47:36;14.60;99.90
54642;DHT22;40536;53.194;5.728;2022-10-17T17:50:02;14.60;99.90
54642;DHT22;40536;53.194;5.728;2022-10-17T17:52:28;14.60;99.90
54642;DHT22;40536;53.194;5.728;2022-10-17T17:54:54;14.50;99.90